createdAt,value
2023-01-22T00:01:05.773Z,73.78
2023-01-22T00:03:34.575Z,67.60
2023-01-22T00:06:03.667Z,70.72
2023-01-22T00:08:32.103Z,78.65
2023-01-22T00:11:03.398Z,71.82
2023-01-22T00:13:32.447Z,70.43
2023-01-22T00:16:02.314Z,63.47
2023-01-22T00:18:28.819Z,61.13
2023-01-22T00:20:55.347Z,58.95
2023-01-22T00:23:25.153Z,59.30
2023-01-22T00:26:04.930Z,58.47
2023-01-22T00:28:31.584Z,59.78
2023-01-22T00:31:01.591Z,59.10
2023-01-22T00:33:28.335Z,60.47
2023-01-22T00:35:54.832Z,57.22
2023-01-22T00:38:21.447Z,52.70
2023-01-22T00:40:47.913Z,54.65
2023-01-22T00:43:14.376Z,52.50
2023-01-22T00:45:40.794Z,55.30
2023-01-22T00:48:07.293Z,54.10
2023-01-22T00:50:33.699Z,56.88
2023-01-22T00:53:00.566Z,54.45
2023-01-22T00:55:26.979Z,57.15
2023-01-22T00:57:53.452Z,59.05
2023-01-22T01:00:20.292Z,60.08
2023-01-22T01:03:05.739Z,62.05
2023-01-22T01:05:32.235Z,58.47
2023-01-22T01:07:58.740Z,64.43
2023-01-22T01:10:25.147Z,54.90
2023-01-22T01:12:51.602Z,60.35
2023-01-22T01:15:18.126Z,57.97
2023-01-22T01:17:46.232Z,60.83
2023-01-22T01:20:13.225Z,56.25
2023-01-22T01:22:39.722Z,64.20
2023-01-22T01:25:06.259Z,58.72
2023-01-22T01:27:32.831Z,62.45
2023-01-22T01:29:59.319Z,63.28
2023-01-22T01:32:25.734Z,58.00
2023-01-22T01:34:52.188Z,57.05
2023-01-22T01:37:18.600Z,63.33
2023-01-22T01:39:45.061Z,60.58
2023-01-22T01:42:11.809Z,63.33
2023-01-22T01:44:40.400Z,61.80
2023-01-22T01:47:14.368Z,60.72
2023-01-22T01:49:47.554Z,64.72
2023-01-22T01:52:14.735Z,67.13
2023-01-22T01:54:43.017Z,61.50
2023-01-22T01:57:11.565Z,66.13
2023-01-22T01:59:38.780Z,73.70
2023-01-22T02:02:05.636Z,66.35
2023-01-22T02:04:32.165Z,68.68
2023-01-22T02:06:58.693Z,66.45
2023-01-22T02:09:25.223Z,101.18
2023-01-22T02:11:52.203Z,84.47
2023-01-22T02:14:20.531Z,71.80
2023-01-22T02:16:47.060Z,69.90
2023-01-22T02:19:13.503Z,72.55
2023-01-22T02:21:41.731Z,78.63
2023-01-22T02:24:09.890Z,70.80
2023-01-22T02:26:36.971Z,62.85
2023-01-22T02:29:04.271Z,67.07
2023-01-22T02:31:31.094Z,67.70
2023-01-22T02:33:57.721Z,66.65
2023-01-22T02:36:24.200Z,68.95
2023-01-22T02:38:50.693Z,60.75
2023-01-22T02:41:17.236Z,64.68
2023-01-22T02:43:43.695Z,63.05
2023-01-22T02:46:10.124Z,57.05
2023-01-22T02:48:36.744Z,58.00
2023-01-22T02:51:03.568Z,55.42
2023-01-22T02:53:30.044Z,59.50
2023-01-22T02:55:56.544Z,63.33
2023-01-22T02:58:22.983Z,55.10
2023-01-22T03:00:52.430Z,55.88
2023-01-22T03:03:19.351Z,59.42
2023-01-22T03:05:49.769Z,56.65
2023-01-22T03:08:16.831Z,52.92
2023-01-22T03:10:43.624Z,52.15
2023-01-22T03:13:28.949Z,54.45
2023-01-22T03:16:14.040Z,57.28
2023-01-22T03:18:59.097Z,49.67
2023-01-22T03:21:49.916Z,52.08
2023-01-22T03:24:36.829Z,51.28
2023-01-22T03:27:04.119Z,49.88
2023-01-22T03:29:30.725Z,49.35
2023-01-22T03:31:57.181Z,44.10
2023-01-22T03:34:24.837Z,44.25
2023-01-22T03:36:51.286Z,44.92
2023-01-22T03:39:17.915Z,42.03
2023-01-22T03:41:44.370Z,39.58
2023-01-22T03:44:11.861Z,42.40
2023-01-22T03:46:39.980Z,40.40
2023-01-22T03:49:07.116Z,40.15
2023-01-22T03:51:33.536Z,40.42
2023-01-22T03:54:00.160Z,40.10
2023-01-22T03:56:26.944Z,41.80
2023-01-22T03:58:53.496Z,36.15
2023-01-22T04:01:21.557Z,36.33
2023-01-22T04:03:48.370Z,35.53
2023-01-22T04:06:15.470Z,40.22
2023-01-22T04:08:42.956Z,35.67
2023-01-22T04:11:09.475Z,32.90
2023-01-22T04:13:36.879Z,32.38
2023-01-22T04:16:03.785Z,37.33
2023-01-22T04:18:30.583Z,34.00
2023-01-22T04:20:57.241Z,31.27
2023-01-22T04:23:24.809Z,31.50
2023-01-22T04:25:51.728Z,33.28
2023-01-22T04:28:18.599Z,29.05
2023-01-22T04:30:45.727Z,34.38
2023-01-22T04:33:12.580Z,33.85
2023-01-22T04:35:39.444Z,34.95
2023-01-22T04:38:06.805Z,31.42
2023-01-22T04:40:33.394Z,34.08
2023-01-22T04:43:03.515Z,28.90
2023-01-22T04:45:30.223Z,30.95
2023-01-22T04:47:57.987Z,28.10
2023-01-22T04:50:25.775Z,30.58
2023-01-22T04:52:53.061Z,27.27
2023-01-22T04:55:19.784Z,24.60
2023-01-22T04:57:46.407Z,27.13
2023-01-22T05:00:13.506Z,25.42
2023-01-22T05:02:40.206Z,26.88
2023-01-22T05:05:07.327Z,26.88
2023-01-22T05:07:34.131Z,30.45
2023-01-22T05:10:00.740Z,30.15
2023-01-22T05:12:27.267Z,24.95
2023-01-22T05:14:53.748Z,26.38
2023-01-22T05:17:20.846Z,27.52
2023-01-22T05:19:47.312Z,30.35
2023-01-22T05:22:13.896Z,26.92
2023-01-22T05:24:40.385Z,29.45
2023-01-22T05:27:07.008Z,29.00
2023-01-22T05:29:33.406Z,26.55
2023-01-22T05:31:59.899Z,28.35
2023-01-22T05:34:26.690Z,29.80
2023-01-22T05:36:53.523Z,24.92
2023-01-22T05:39:21.366Z,25.90
2023-01-22T05:41:49.624Z,26.00
2023-01-22T05:44:16.108Z,26.60
2023-01-22T05:46:42.609Z,25.40
2023-01-22T05:49:09.145Z,26.40
2023-01-22T05:51:35.668Z,24.95
2023-01-22T05:54:02.192Z,24.92
2023-01-22T05:56:31.218Z,28.17
2023-01-22T05:58:57.804Z,22.25
2023-01-22T06:01:24.671Z,23.95
2023-01-22T06:03:52.271Z,23.90
2023-01-22T06:06:19.323Z,23.30
2023-01-22T06:08:46.496Z,23.45
2023-01-22T06:11:14.572Z,29.65
2023-01-22T06:13:41.316Z,24.05
2023-01-22T06:16:08.269Z,23.45
2023-01-22T06:18:34.823Z,25.02
2023-01-22T06:21:05.774Z,21.30
2023-01-22T06:23:32.435Z,22.75
2023-01-22T06:25:59.512Z,21.85
2023-01-22T06:28:26.136Z,21.08
2023-01-22T06:30:53.466Z,22.50
2023-01-22T06:33:20.054Z,20.83
2023-01-22T06:35:46.499Z,19.70
2023-01-22T06:38:12.932Z,21.98
2023-01-22T06:40:39.419Z,20.85
2023-01-22T06:43:10.511Z,23.08
2023-01-22T06:45:38.118Z,18.98
2023-01-22T06:48:04.675Z,22.58
2023-01-22T06:50:31.677Z,20.60
2023-01-22T06:52:59.937Z,20.00
2023-01-22T06:55:26.432Z,19.70
2023-01-22T06:57:56.094Z,20.17
2023-01-22T07:00:22.706Z,24.35
2023-01-22T07:02:49.153Z,21.88
2023-01-22T07:05:15.798Z,20.48
2023-01-22T07:07:42.842Z,24.38
2023-01-22T07:10:09.838Z,23.20
2023-01-22T07:12:36.315Z,21.80
2023-01-22T07:15:03.135Z,18.52
2023-01-22T07:17:29.637Z,21.40
2023-01-22T07:19:56.114Z,23.75
2023-01-22T07:22:22.578Z,18.70
2023-01-22T07:24:49.077Z,19.55
2023-01-22T07:27:15.565Z,20.58
2023-01-22T07:29:42.041Z,22.98
2023-01-22T07:32:08.429Z,18.45
2023-01-22T07:34:35.067Z,20.30
2023-01-22T07:37:03.778Z,21.83
2023-01-22T07:39:30.342Z,21.45
2023-01-22T07:42:01.204Z,19.73
2023-01-22T07:44:27.749Z,21.80
2023-01-22T07:46:54.295Z,20.75
2023-01-22T07:49:20.723Z,23.30
2023-01-22T07:51:47.407Z,19.13
2023-01-22T07:54:13.971Z,20.80
2023-01-22T07:56:40.497Z,18.33
2023-01-22T07:59:07.055Z,19.75
2023-01-22T08:01:40.014Z,19.70
2023-01-22T08:04:09.762Z,25.65
2023-01-22T08:06:38.980Z,19.30
2023-01-22T08:09:06.281Z,24.20
2023-01-22T08:11:32.976Z,18.13
2023-01-22T08:13:59.743Z,22.20
2023-01-22T08:16:26.335Z,22.10
2023-01-22T08:18:53.139Z,17.83
2023-01-22T08:21:20.054Z,16.30
2023-01-22T08:23:49.183Z,17.88
2023-01-22T08:26:15.852Z,19.58
2023-01-22T08:28:43.856Z,17.75
2023-01-22T08:31:19.166Z,16.20
2023-01-22T08:33:49.417Z,17.33
2023-01-22T08:36:17.427Z,19.45
2023-01-22T08:38:44.101Z,16.63
2023-01-22T08:41:10.784Z,20.00
2023-01-22T08:43:46.207Z,19.95
2023-01-22T08:46:12.904Z,17.23
2023-01-22T08:48:43.159Z,18.40
2023-01-22T08:51:10.694Z,18.13
2023-01-22T08:53:39.850Z,18.10
2023-01-22T08:56:09.597Z,16.83
2023-01-22T08:58:36.266Z,18.85
2023-01-22T09:01:08.964Z,17.40
2023-01-22T09:03:37.202Z,20.73
2023-01-22T09:06:05.426Z,17.25
2023-01-22T09:08:32.070Z,16.70
2023-01-22T09:11:00.640Z,15.85
2023-01-22T09:13:27.243Z,19.08
2023-01-22T09:15:58.310Z,19.05
2023-01-22T09:18:25.179Z,13.90
2023-01-22T09:20:52.160Z,16.65
2023-01-22T09:23:22.498Z,15.35
2023-01-22T09:25:49.315Z,17.88
2023-01-22T09:28:15.968Z,16.60
2023-01-22T09:30:42.964Z,15.10
2023-01-22T09:33:10.036Z,15.45
2023-01-22T09:35:36.685Z,16.08
2023-01-22T09:38:05.720Z,17.95
2023-01-22T09:40:43.248Z,18.23
2023-01-22T09:43:27.537Z,19.20
2023-01-22T09:45:57.136Z,14.82
2023-01-22T09:48:27.668Z,15.48
2023-01-22T09:50:54.408Z,17.42
2023-01-22T09:53:24.395Z,14.95
2023-01-22T09:55:52.375Z,14.75
2023-01-22T09:58:22.772Z,17.27
2023-01-22T10:00:49.371Z,13.80
2023-01-22T10:03:22.853Z,14.88
2023-01-22T10:08:21.185Z,13.70
2023-01-22T10:10:52.360Z,18.77
2023-01-22T10:13:27.583Z,15.10
2023-01-22T10:15:55.682Z,16.83
2023-01-22T10:18:31.668Z,14.60
2023-01-22T10:21:04.239Z,19.00
2023-01-22T10:23:31.914Z,16.63
2023-01-22T10:26:07.283Z,14.80
2023-01-22T10:28:33.963Z,15.02
2023-01-22T10:31:00.531Z,16.83
2023-01-22T10:33:28.004Z,16.20
2023-01-22T10:35:56.977Z,14.40
2023-01-22T10:38:43.995Z,15.02
2023-01-22T10:41:20.121Z,19.52
2023-01-22T10:43:52.383Z,16.33
2023-01-22T10:46:21.117Z,13.57
2023-01-22T10:48:58.984Z,14.35
2023-01-22T10:51:32.703Z,12.98
2023-01-22T10:53:59.650Z,15.60
2023-01-22T10:56:37.779Z,14.82
2023-01-22T10:59:15.791Z,14.75
2023-01-22T11:01:43.457Z,15.25
2023-01-22T11:04:14.116Z,13.80
2023-01-22T11:06:45.418Z,15.88
2023-01-22T11:09:19.144Z,16.45
2023-01-22T11:11:51.515Z,14.73
2023-01-22T11:14:27.889Z,16.80
2023-01-22T11:16:57.210Z,17.27
2023-01-22T11:19:36.619Z,14.90
2023-01-22T11:22:15.487Z,17.05
2023-01-22T11:24:47.478Z,15.75
2023-01-22T11:27:33.440Z,14.93
2023-01-22T11:30:26.963Z,14.73
2023-01-22T11:33:01.464Z,13.60
2023-01-22T11:35:40.864Z,15.63
2023-01-22T11:38:11.243Z,14.32
2023-01-22T11:40:43.710Z,13.82
2023-01-22T11:43:31.313Z,16.77
2023-01-22T11:46:16.527Z,14.07
2023-01-22T11:52:17.301Z,14.85
2023-01-22T11:55:05.619Z,14.20
2023-01-22T11:58:01.369Z,12.15
2023-01-22T12:00:36.557Z,15.45
2023-01-22T12:11:16.064Z,15.65
2023-01-22T12:13:35.433Z,12.95
2023-01-22T12:16:56.473Z,15.70
2023-01-22T12:19:55.135Z,14.50
2023-01-22T12:23:25.824Z,12.82
2023-01-22T12:28:58.511Z,18.63
2023-01-22T12:31:54.653Z,15.55
2023-01-22T12:34:46.010Z,14.25
2023-01-22T12:37:25.082Z,12.85
2023-01-22T12:39:52.141Z,13.40
2023-01-22T12:46:04.835Z,13.82
2023-01-22T12:48:57.775Z,12.25
2023-01-22T12:51:51.505Z,15.93
2023-01-22T13:01:37.528Z,12.52
2023-01-22T13:04:08.654Z,14.15
2023-01-22T13:06:46.421Z,13.07
2023-01-22T13:09:26.168Z,12.30
2023-01-22T13:11:55.238Z,16.98
2023-01-22T13:14:25.228Z,12.68
2023-01-22T13:16:56.284Z,19.05
2023-01-22T13:19:25.076Z,11.45
2023-01-22T13:22:02.395Z,17.60
2023-01-22T13:24:48.366Z,13.27
2023-01-22T13:28:05.354Z,11.85
2023-01-22T13:30:48.163Z,14.35
2023-01-22T13:33:16.076Z,19.15
2023-01-22T13:35:47.710Z,15.82
2023-01-22T13:38:26.734Z,17.08
2023-01-22T13:41:11.597Z,12.55
2023-01-22T13:43:38.811Z,13.30
2023-01-22T13:46:18.570Z,13.70
2023-01-22T13:49:27.319Z,14.57
2023-01-22T13:52:03.886Z,14.98
2023-01-22T13:54:53.692Z,14.98
2023-01-22T13:57:24.206Z,17.23
2023-01-22T14:00:11.085Z,13.48
2023-01-22T14:02:49.812Z,17.10
2023-01-22T14:05:27.095Z,15.20
2023-01-22T14:08:43.672Z,11.68
2023-01-22T14:11:27.943Z,13.88
2023-01-22T14:13:54.724Z,12.20
2023-01-22T14:16:29.293Z,14.80
2023-01-22T14:19:56.547Z,12.88
2023-01-22T14:25:21.418Z,15.98
2023-01-22T14:31:08.406Z,11.98
2023-01-22T14:33:55.369Z,15.98
2023-01-22T14:36:36.301Z,13.80
2023-01-22T14:42:02.908Z,17.65
2023-01-22T14:44:32.681Z,17.70
2023-01-22T14:47:01.460Z,15.70
2023-01-22T14:49:32.774Z,21.95
2023-01-22T14:52:02.846Z,16.13
2023-01-22T14:55:15.778Z,17.15
2023-01-22T14:57:51.827Z,18.10
2023-01-22T15:00:19.678Z,16.17
2023-01-22T15:02:55.079Z,20.17
2023-01-22T15:05:25.898Z,21.63
2023-01-22T15:08:08.172Z,17.05
2023-01-22T15:10:44.854Z,19.20
2023-01-22T15:13:12.315Z,20.55
2023-01-22T15:15:54.613Z,16.75
2023-01-22T15:18:35.597Z,15.30
2023-01-22T15:21:10.900Z,16.58
2023-01-22T15:23:45.260Z,17.77
2023-01-22T15:26:33.453Z,21.73
2023-01-22T15:29:00.298Z,20.33
2023-01-22T15:31:29.253Z,16.48
2023-01-22T15:34:00.677Z,17.58
2023-01-22T15:36:30.101Z,18.75
2023-01-22T15:38:59.437Z,17.20
2023-01-22T15:41:30.226Z,16.98
2023-01-22T15:44:01.629Z,19.30
2023-01-22T15:46:29.662Z,19.38
2023-01-22T15:49:09.089Z,18.33
2023-01-22T15:51:36.150Z,19.38
2023-01-22T15:54:03.928Z,17.10
2023-01-22T15:56:36.804Z,16.90
2023-01-22T15:59:04.342Z,19.27
2023-01-22T16:01:31.120Z,20.98
2023-01-22T16:03:58.212Z,17.70
2023-01-22T16:06:31.223Z,20.02
2023-01-22T16:08:58.988Z,16.05
2023-01-22T16:11:29.241Z,20.73
2023-01-22T16:13:59.070Z,17.60
2023-01-22T16:16:33.523Z,17.02
2023-01-22T16:19:01.369Z,17.40
2023-01-22T16:21:28.421Z,15.65
2023-01-22T16:24:06.016Z,17.63
2023-01-22T16:26:33.986Z,17.85
2023-01-22T16:29:03.645Z,14.93
2023-01-22T16:31:34.876Z,17.40
2023-01-22T16:34:28.103Z,15.27
2023-01-22T16:37:00.757Z,22.43
2023-01-22T16:39:27.396Z,21.88
2023-01-22T16:41:54.216Z,17.80
2023-01-22T16:44:33.779Z,19.38
2023-01-22T16:47:06.241Z,22.88
2023-01-22T16:49:33.406Z,19.05
2023-01-22T16:52:20.683Z,17.67
2023-01-22T16:54:49.557Z,20.00
2023-01-22T16:57:16.282Z,20.45
2023-01-22T16:59:42.928Z,21.13
2023-01-22T17:02:14.313Z,17.00
2023-01-22T17:04:46.219Z,21.55
2023-01-22T17:07:23.937Z,20.58
2023-01-22T17:09:58.561Z,19.17
2023-01-22T17:12:29.671Z,23.85
2023-01-22T17:15:16.669Z,19.38
2023-01-22T17:17:43.486Z,23.65
2023-01-22T17:20:15.056Z,19.02
2023-01-22T17:22:41.795Z,19.80
2023-01-22T17:25:08.688Z,19.95
2023-01-22T17:27:41.554Z,18.20
2023-01-22T17:35:45.635Z,19.17
2023-01-22T17:41:20.270Z,20.00
2023-01-22T17:43:53.915Z,21.10
2023-01-22T17:49:29.143Z,18.52
2023-01-22T17:52:24.027Z,21.00
2023-01-22T17:55:17.763Z,21.13
2023-01-22T17:57:45.263Z,20.65
2023-01-22T18:00:21.028Z,19.58
2023-01-22T18:02:50.233Z,20.77
2023-01-22T18:05:17.328Z,19.63
2023-01-22T18:07:44.092Z,20.25
2023-01-22T18:10:13.496Z,21.58
2023-01-22T18:12:40.093Z,23.70
2023-01-22T18:15:06.898Z,23.50
2023-01-22T18:17:33.479Z,24.25
2023-01-22T18:19:59.902Z,23.10
2023-01-22T18:22:26.557Z,23.40
2023-01-22T18:24:52.964Z,26.17
2023-01-22T18:27:19.521Z,23.17
2023-01-22T18:29:46.094Z,22.63
2023-01-22T18:32:12.673Z,21.65
2023-01-22T18:34:39.440Z,22.58
2023-01-22T18:37:56.657Z,26.33
2023-01-22T18:43:12.149Z,25.25
2023-01-22T18:45:42.721Z,23.05
2023-01-22T18:48:13.477Z,26.50
2023-01-22T18:50:44.752Z,24.35
2023-01-22T18:53:17.625Z,28.67
2023-01-22T18:56:10.480Z,23.20
2023-01-22T18:58:38.495Z,25.60
2023-01-22T19:01:14.329Z,23.40
2023-01-22T19:03:44.181Z,24.85
2023-01-22T19:06:45.186Z,24.27
2023-01-22T19:12:34.551Z,21.17
2023-01-22T19:15:26.034Z,30.45
2023-01-22T19:21:40.710Z,30.92
2023-01-22T19:24:23.147Z,28.08
2023-01-22T19:26:56.574Z,28.05
2023-01-22T19:29:30.799Z,30.70
2023-01-22T19:31:59.149Z,25.13
2023-01-22T19:34:41.535Z,26.15
2023-01-22T19:40:43.085Z,25.33
2023-01-22T19:49:32.036Z,27.40
2023-01-22T19:52:01.451Z,25.15
2023-01-22T19:54:43.922Z,28.13
2023-01-22T19:57:31.186Z,30.83
2023-01-22T20:06:13.691Z,32.42
2023-01-22T20:08:54.693Z,32.70
2023-01-22T20:11:24.369Z,31.75
2023-01-22T20:13:58.956Z,30.08
2023-01-22T20:16:34.185Z,28.42
2023-01-22T20:19:00.897Z,27.38
2023-01-22T20:21:46.910Z,29.58
2023-01-22T20:24:18.355Z,31.77
2023-01-22T20:27:11.627Z,30.52
2023-01-22T20:29:39.097Z,30.10
2023-01-22T20:32:14.629Z,31.88
2023-01-22T20:34:45.494Z,27.65
2023-01-22T20:39:54.236Z,32.60
2023-01-22T20:42:30.205Z,33.47
2023-01-22T20:44:59.148Z,32.25
2023-01-22T20:47:27.259Z,34.30
2023-01-22T20:50:06.933Z,35.17
2023-01-22T20:52:33.665Z,30.80
2023-01-22T20:55:46.403Z,29.60
2023-01-22T20:58:11.554Z,31.88
2023-01-22T21:04:35.695Z,36.35
2023-01-22T21:16:45.859Z,37.35
2023-01-22T21:19:23.388Z,35.60
2023-01-22T21:22:08.478Z,32.20
2023-01-22T21:24:48.662Z,33.30
2023-01-22T21:27:18.243Z,31.48
2023-01-22T21:29:44.726Z,38.20
2023-01-22T21:32:11.189Z,33.65
2023-01-22T21:34:41.103Z,38.00
2023-01-22T21:37:07.575Z,37.40
2023-01-22T21:39:34.152Z,34.45
2023-01-22T21:42:29.854Z,37.25
2023-01-22T21:45:18.087Z,40.30
2023-01-22T21:47:44.640Z,44.08
2023-01-22T21:50:11.354Z,38.33
2023-01-22T21:52:40.213Z,38.05
2023-01-22T21:55:06.976Z,38.80
2023-01-22T21:57:33.462Z,38.33
2023-01-22T22:00:11.157Z,39.13
2023-01-22T22:02:37.826Z,40.45
2023-01-22T22:05:04.466Z,38.38
2023-01-22T22:07:31.025Z,35.67
2023-01-22T22:09:57.578Z,41.42
2023-01-22T22:12:25.601Z,38.90
2023-01-22T22:14:59.509Z,41.10
2023-01-22T22:17:26.152Z,37.05
2023-01-22T22:20:05.955Z,36.60
2023-01-22T22:22:37.837Z,36.97
2023-01-22T22:25:04.505Z,40.45
2023-01-22T22:27:31.124Z,37.70
2023-01-22T22:30:00.161Z,38.47
2023-01-22T22:32:26.612Z,40.17
2023-01-22T22:34:53.080Z,36.67
2023-01-22T22:37:23.645Z,38.53
2023-01-22T22:39:50.126Z,37.13
2023-01-22T22:42:16.627Z,38.20
2023-01-22T22:44:43.072Z,40.53
2023-01-22T22:47:12.613Z,38.28
2023-01-22T22:49:39.173Z,38.55
2023-01-22T22:52:05.815Z,34.78
2023-01-22T22:54:33.413Z,43.03
2023-01-22T22:56:59.975Z,41.17
2023-01-22T22:59:26.470Z,37.03
2023-01-22T23:01:52.939Z,39.33
2023-01-22T23:04:22.176Z,37.33
2023-01-22T23:06:48.826Z,43.13
2023-01-22T23:09:17.070Z,42.67
2023-01-22T23:11:46.309Z,39.63
2023-01-22T23:14:12.999Z,44.78
2023-01-22T23:16:40.675Z,40.20
2023-01-22T23:19:13.527Z,39.72
2023-01-22T23:21:42.694Z,35.78
2023-01-22T23:24:13.163Z,36.25
2023-01-22T23:26:40.219Z,39.05
2023-01-22T23:29:09.992Z,45.38
2023-01-22T23:31:38.447Z,39.90
2023-01-22T23:34:10.609Z,39.10
2023-01-22T23:36:38.392Z,37.50
2023-01-22T23:39:04.910Z,36.63
2023-01-22T23:41:31.527Z,47.20
2023-01-22T23:43:57.980Z,46.83
2023-01-22T23:46:26.398Z,44.53
2023-01-22T23:48:54.255Z,41.88
2023-01-22T23:51:21.243Z,37.58
2023-01-22T23:53:48.983Z,40.50
2023-01-22T23:56:15.756Z,42.65
2023-01-22T23:58:42.247Z,38.60
